sensor_id;sensor_type;location;lat;lon;timestamp;P1;P2;P0
61584;PMS7003;47479;53.810;18.308;2022-12-01T00:02:51;41;33;21
61584;PMS7003;47479;53.810;18.308;2022-12-01T00:07:53;40;32;20
61584;PMS7003;47479;53.810;18.308;2022-12-01T00:12:55;42;33;22
61584;PMS7003;47479;53.810;18.308;2022-12-01T00:17:58;42;34;21
61584;PMS7003;47479;53.810;18.308;2022-12-01T00:23:01;39;30;20
61584;PMS7003;47479;53.810;18.308;2022-12-01T00:28:03;40;33;21
61584;PMS7003;47479;53.810;18.308;2022-12-01T00:33:05;40;33;21
61584;PMS7003;47479;53.810;18.308;2022-12-01T00:38:07;41;34;21
61584;PMS7003;47479;53.810;18.308;2022-12-01T00:43:08;40;33;21
61584;PMS7003;47479;53.810;18.308;2022-12-01T00:48:10;39;30;19
61584;PMS7003;47479;53.810;18.308;2022-12-01T00:53:12;34;29;18
61584;PMS7003;47479;53.810;18.308;2022-12-01T00:58:13;35;30;19
61584;PMS7003;47479;53.810;18.308;2022-12-01T01:03:15;34;29;19
61584;PMS7003;47479;53.810;18.308;2022-12-01T01:08:33;34;28;18
61584;PMS7003;47479;53.810;18.308;2022-12-01T01:13:35;31;27;18
61584;PMS7003;47479;53.810;18.308;2022-12-01T01:18:37;27;24;17
61584;PMS7003;47479;53.810;18.308;2022-12-01T01:23:39;34;30;18
61584;PMS7003;47479;53.810;18.308;2022-12-01T01:28:41;31;25;17
61584;PMS7003;47479;53.810;18.308;2022-12-01T01:33:43;29;25;17
61584;PMS7003;47479;53.810;18.308;2022-12-01T01:38:45;24;23;17
61584;PMS7003;47479;53.810;18.308;2022-12-01T01:49:00;26;24;17
61584;PMS7003;47479;53.810;18.308;2022-12-01T01:54:10;32;26;16
61584;PMS7003;47479;53.810;18.308;2022-12-01T01:59:14;27;24;16
61584;PMS7003;47479;53.810;18.308;2022-12-01T02:04:12;23;22;15
61584;PMS7003;47479;53.810;18.308;2022-12-01T02:09:15;25;25;16
61584;PMS7003;47479;53.810;18.308;2022-12-01T02:19:45;24;23;13
61584;PMS7003;47479;53.810;18.308;2022-12-01T02:35:40;26;21;16
61584;PMS7003;47479;53.810;18.308;2022-12-01T02:46:17;25;22;16
61584;PMS7003;47479;53.810;18.308;2022-12-01T02:51:26;25;23;14
61584;PMS7003;47479;53.810;18.308;2022-12-01T02:56:29;32;26;17
61584;PMS7003;47479;53.810;18.308;2022-12-01T03:07:33;28;25;14
61584;PMS7003;47479;53.810;18.308;2022-12-01T03:12:46;26;22;15
61584;PMS7003;47479;53.810;18.308;2022-12-01T03:17:58;26;22;14
61584;PMS7003;47479;53.810;18.308;2022-12-01T03:23:12;24;21;12
61584;PMS7003;47479;53.810;18.308;2022-12-01T03:28:15;25;22;16
61584;PMS7003;47479;53.810;18.308;2022-12-01T03:33:28;22;21;15
61584;PMS7003;47479;53.810;18.308;2022-12-01T03:38:28;21;20;14
61584;PMS7003;47479;53.810;18.308;2022-12-01T03:43:41;20;20;14
61584;PMS7003;47479;53.810;18.308;2022-12-01T03:48:44;22;21;14
61584;PMS7003;47479;53.810;18.308;2022-12-01T03:58:59;26;25;17
61584;PMS7003;47479;53.810;18.308;2022-12-01T04:04:06;21;20;11
61584;PMS7003;47479;53.810;18.308;2022-12-01T04:09:09;23;21;13
61584;PMS7003;47479;53.810;18.308;2022-12-01T04:14:13;21;19;11
61584;PMS7003;47479;53.810;18.308;2022-12-01T04:19:13;20;19;12
61584;PMS7003;47479;53.810;18.308;2022-12-01T04:24:15;21;20;13
61584;PMS7003;47479;53.810;18.308;2022-12-01T04:29:17;23;19;13
61584;PMS7003;47479;53.810;18.308;2022-12-01T04:34:18;22;20;11
61584;PMS7003;47479;53.810;18.308;2022-12-01T04:39:20;21;19;12
61584;PMS7003;47479;53.810;18.308;2022-12-01T04:44:22;19;19;12
61584;PMS7003;47479;53.810;18.308;2022-12-01T04:49:40;26;18;10
61584;PMS7003;47479;53.810;18.308;2022-12-01T04:54:42;17;17;11
61584;PMS7003;47479;53.810;18.308;2022-12-01T04:59:44;19;19;13
61584;PMS7003;47479;53.810;18.308;2022-12-01T05:04:46;21;19;11
61584;PMS7003;47479;53.810;18.308;2022-12-01T05:09:48;18;17;11
61584;PMS7003;47479;53.810;18.308;2022-12-01T05:14:50;20;18;10
61584;PMS7003;47479;53.810;18.308;2022-12-01T05:19:52;20;18;11
61584;PMS7003;47479;53.810;18.308;2022-12-01T05:25:32;27;23;14
61584;PMS7003;47479;53.810;18.308;2022-12-01T05:30:34;22;20;13
61584;PMS7003;47479;53.810;18.308;2022-12-01T05:35:53;22;20;12
61584;PMS7003;47479;53.810;18.308;2022-12-01T05:40:55;16;16;10
61584;PMS7003;47479;53.810;18.308;2022-12-01T05:45:57;20;19;12
61584;PMS7003;47479;53.810;18.308;2022-12-01T05:50:59;18;18;11
61584;PMS7003;47479;53.810;18.308;2022-12-01T05:56:02;18;17;11
61584;PMS7003;47479;53.810;18.308;2022-12-01T06:01:04;20;19;12
61584;PMS7003;47479;53.810;18.308;2022-12-01T06:06:06;23;21;12
61584;PMS7003;47479;53.810;18.308;2022-12-01T06:11:08;25;19;10
61584;PMS7003;47479;53.810;18.308;2022-12-01T06:16:12;22;21;11
61584;PMS7003;47479;53.810;18.308;2022-12-01T06:21:14;19;19;12
61584;PMS7003;47479;53.810;18.308;2022-12-01T06:26:15;19;19;12
61584;PMS7003;47479;53.810;18.308;2022-12-01T06:31:17;22;18;11
61584;PMS7003;47479;53.810;18.308;2022-12-01T06:36:20;21;20;11
61584;PMS7003;47479;53.810;18.308;2022-12-01T06:41:22;18;18;13
61584;PMS7003;47479;53.810;18.308;2022-12-01T06:46:23;20;20;15
61584;PMS7003;47479;53.810;18.308;2022-12-01T06:51:26;24;22;13
61584;PMS7003;47479;53.810;18.308;2022-12-01T06:56:29;24;24;16
61584;PMS7003;47479;53.810;18.308;2022-12-01T07:01:41;29;26;16
61584;PMS7003;47479;53.810;18.308;2022-12-01T07:06:43;26;24;16
61584;PMS7003;47479;53.810;18.308;2022-12-01T07:11:45;26;24;15
61584;PMS7003;47479;53.810;18.308;2022-12-01T07:16:46;26;24;15
61584;PMS7003;47479;53.810;18.308;2022-12-01T07:21:48;25;24;15
61584;PMS7003;47479;53.810;18.308;2022-12-01T07:26:50;24;22;13
61584;PMS7003;47479;53.810;18.308;2022-12-01T07:31:52;25;24;14
61584;PMS7003;47479;53.810;18.308;2022-12-01T07:36:54;25;21;13
61584;PMS7003;47479;53.810;18.308;2022-12-01T07:41:56;21;20;16
61584;PMS7003;47479;53.810;18.308;2022-12-01T07:46:58;18;17;10
61584;PMS7003;47479;53.810;18.308;2022-12-01T07:52:00;25;21;13
61584;PMS7003;47479;53.810;18.308;2022-12-01T07:57:01;23;21;13
61584;PMS7003;47479;53.810;18.308;2022-12-01T08:02:03;21;20;14
61584;PMS7003;47479;53.810;18.308;2022-12-01T08:07:06;21;20;13
61584;PMS7003;47479;53.810;18.308;2022-12-01T08:12:07;18;16;11
61584;PMS7003;47479;53.810;18.308;2022-12-01T08:17:10;25;23;13
61584;PMS7003;47479;53.810;18.308;2022-12-01T08:22:12;25;24;14
61584;PMS7003;47479;53.810;18.308;2022-12-01T08:27:30;26;22;14
61584;PMS7003;47479;53.810;18.308;2022-12-01T08:32:31;24;20;12
61584;PMS7003;47479;53.810;18.308;2022-12-01T08:37:33;20;19;11
61584;PMS7003;47479;53.810;18.308;2022-12-01T08:42:35;22;21;13
61584;PMS7003;47479;53.810;18.308;2022-12-01T08:47:37;26;23;14
61584;PMS7003;47479;53.810;18.308;2022-12-01T08:52:39;25;23;13
61584;PMS7003;47479;53.810;18.308;2022-12-01T08:57:41;22;19;11
61584;PMS7003;47479;53.810;18.308;2022-12-01T09:02:43;22;20;14
61584;PMS7003;47479;53.810;18.308;2022-12-01T09:07:45;26;20;14
61584;PMS7003;47479;53.810;18.308;2022-12-01T09:12:48;22;22;12
61584;PMS7003;47479;53.810;18.308;2022-12-01T09:17:50;20;18;13
61584;PMS7003;47479;53.810;18.308;2022-12-01T09:22:52;22;21;14
61584;PMS7003;47479;53.810;18.308;2022-12-01T09:27:54;24;23;13
61584;PMS7003;47479;53.810;18.308;2022-12-01T09:32:56;19;16;11
61584;PMS7003;47479;53.810;18.308;2022-12-01T09:37:58;19;15;12
61584;PMS7003;47479;53.810;18.308;2022-12-01T09:43:00;18;18;12
61584;PMS7003;47479;53.810;18.308;2022-12-01T09:48:03;19;18;12
61584;PMS7003;47479;53.810;18.308;2022-12-01T09:53:20;24;23;13
61584;PMS7003;47479;53.810;18.308;2022-12-01T09:58:23;21;19;13
61584;PMS7003;47479;53.810;18.308;2022-12-01T10:03:35;18;16;13
61584;PMS7003;47479;53.810;18.308;2022-12-01T10:08:40;24;22;14
61584;PMS7003;47479;53.810;18.308;2022-12-01T10:13:43;18;17;11
61584;PMS7003;47479;53.810;18.308;2022-12-01T10:29:46;20;15;12
61584;PMS7003;47479;53.810;18.308;2022-12-01T10:34:49;14;14;12
61584;PMS7003;47479;53.810;18.308;2022-12-01T10:39:52;25;20;13
61584;PMS7003;47479;53.810;18.308;2022-12-01T10:44:55;19;17;13
61584;PMS7003;47479;53.810;18.308;2022-12-01T10:49:58;20;19;13
61584;PMS7003;47479;53.810;18.308;2022-12-01T10:55:00;20;20;13
61584;PMS7003;47479;53.810;18.308;2022-12-01T11:00:04;17;15;11
61584;PMS7003;47479;53.810;18.308;2022-12-01T11:05:18;18;16;10
61584;PMS7003;47479;53.810;18.308;2022-12-01T11:15:53;17;15;10
61584;PMS7003;47479;53.810;18.308;2022-12-01T11:26:19;16;14;10
61584;PMS7003;47479;53.810;18.308;2022-12-01T11:36:45;14;12;8
61584;PMS7003;47479;53.810;18.308;2022-12-01T11:41:48;14;13;7
61584;PMS7003;47479;53.810;18.308;2022-12-01T11:46:51;11;10;8
61584;PMS7003;47479;53.810;18.308;2022-12-01T11:52:20;11;10;8
61584;PMS7003;47479;53.810;18.308;2022-12-01T11:57:27;10;10;9
61584;PMS7003;47479;53.810;18.308;2022-12-01T12:08:25;11;9;7
61584;PMS7003;47479;53.810;18.308;2022-12-01T12:19:20;11;10;7
61584;PMS7003;47479;53.810;18.308;2022-12-01T12:34:38;8;8;8
61584;PMS7003;47479;53.810;18.308;2022-12-01T12:44:48;10;10;8
61584;PMS7003;47479;53.810;18.308;2022-12-01T12:55:28;9;9;7
61584;PMS7003;47479;53.810;18.308;2022-12-01T13:00:30;14;12;8
61584;PMS7003;47479;53.810;18.308;2022-12-01T13:05:34;11;11;8
61584;PMS7003;47479;53.810;18.308;2022-12-01T13:10:41;11;9;6
61584;PMS7003;47479;53.810;18.308;2022-12-01T13:15:52;10;9;8
61584;PMS7003;47479;53.810;18.308;2022-12-01T13:20:55;7;7;5
61584;PMS7003;47479;53.810;18.308;2022-12-01T13:25:58;8;8;5
61584;PMS7003;47479;53.810;18.308;2022-12-01T13:31:02;7;7;6
61584;PMS7003;47479;53.810;18.308;2022-12-01T13:36:09;8;8;7
61584;PMS7003;47479;53.810;18.308;2022-12-01T13:41:27;10;9;7
61584;PMS7003;47479;53.810;18.308;2022-12-01T13:57:24;7;7;7
61584;PMS7003;47479;53.810;18.308;2022-12-01T14:02:22;11;11;7
61584;PMS7003;47479;53.810;18.308;2022-12-01T14:07:32;10;10;7
61584;PMS7003;47479;53.810;18.308;2022-12-01T14:12:34;8;8;6
61584;PMS7003;47479;53.810;18.308;2022-12-01T14:17:47;12;10;7
61584;PMS7003;47479;53.810;18.308;2022-12-01T14:28:16;11;10;7
61584;PMS7003;47479;53.810;18.308;2022-12-01T14:38:40;12;11;8
61584;PMS7003;47479;53.810;18.308;2022-12-01T14:43:43;10;10;7
61584;PMS7003;47479;53.810;18.308;2022-12-01T14:49:04;10;10;6
61584;PMS7003;47479;53.810;18.308;2022-12-01T14:54:19;13;11;8
61584;PMS7003;47479;53.810;18.308;2022-12-01T14:59:26;11;8;6
61584;PMS7003;47479;53.810;18.308;2022-12-01T15:04:28;7;7;6
61584;PMS7003;47479;53.810;18.308;2022-12-01T15:09:30;12;8;6
61584;PMS7003;47479;53.810;18.308;2022-12-01T15:14:45;15;15;10
61584;PMS7003;47479;53.810;18.308;2022-12-01T15:19:47;11;10;6
61584;PMS7003;47479;53.810;18.308;2022-12-01T15:26:14;9;9;6
61584;PMS7003;47479;53.810;18.308;2022-12-01T15:31:11;16;12;8
61584;PMS7003;47479;53.810;18.308;2022-12-01T15:36:14;11;9;8
61584;PMS7003;47479;53.810;18.308;2022-12-01T15:41:20;13;9;6
61584;PMS7003;47479;53.810;18.308;2022-12-01T15:46:25;12;10;8
61584;PMS7003;47479;53.810;18.308;2022-12-01T15:51:29;13;12;7
61584;PMS7003;47479;53.810;18.308;2022-12-01T15:56:35;9;9;7
61584;PMS7003;47479;53.810;18.308;2022-12-01T16:01:38;9;9;6
61584;PMS7003;47479;53.810;18.308;2022-12-01T16:06:41;9;9;6
61584;PMS7003;47479;53.810;18.308;2022-12-01T16:17:18;12;12;9
61584;PMS7003;47479;53.810;18.308;2022-12-01T16:22:20;13;10;9
61584;PMS7003;47479;53.810;18.308;2022-12-01T16:27:23;14;14;10
61584;PMS7003;47479;53.810;18.308;2022-12-01T16:32:38;15;13;10
61584;PMS7003;47479;53.810;18.308;2022-12-01T16:37:41;17;14;10
61584;PMS7003;47479;53.810;18.308;2022-12-01T16:42:43;16;16;11
61584;PMS7003;47479;53.810;18.308;2022-12-01T16:47:45;23;19;13
61584;PMS7003;47479;53.810;18.308;2022-12-01T16:52:48;32;27;17
61584;PMS7003;47479;53.810;18.308;2022-12-01T16:57:50;24;23;15
61584;PMS7003;47479;53.810;18.308;2022-12-01T17:02:52;23;23;16
61584;PMS7003;47479;53.810;18.308;2022-12-01T17:07:54;22;20;16
61584;PMS7003;47479;53.810;18.308;2022-12-01T17:12:56;25;24;16
61584;PMS7003;47479;53.810;18.308;2022-12-01T17:17:58;32;27;17
61584;PMS7003;47479;53.810;18.308;2022-12-01T17:23:14;27;25;16
61584;PMS7003;47479;53.810;18.308;2022-12-01T17:28:16;24;22;17
61584;PMS7003;47479;53.810;18.308;2022-12-01T17:33:18;24;24;15
61584;PMS7003;47479;53.810;18.308;2022-12-01T17:38:20;24;22;15
61584;PMS7003;47479;53.810;18.308;2022-12-01T17:43:22;29;25;17
61584;PMS7003;47479;53.810;18.308;2022-12-01T17:48:24;82;77;51
61584;PMS7003;47479;53.810;18.308;2022-12-01T17:53:26;30;26;17
61584;PMS7003;47479;53.810;18.308;2022-12-01T17:58:28;30;26;17
61584;PMS7003;47479;53.810;18.308;2022-12-01T18:03:30;34;29;20
61584;PMS7003;47479;53.810;18.308;2022-12-01T18:08:34;39;30;19
61584;PMS7003;47479;53.810;18.308;2022-12-01T18:13:37;31;29;19
61584;PMS7003;47479;53.810;18.308;2022-12-01T18:18:39;34;30;20
61584;PMS7003;47479;53.810;18.308;2022-12-01T18:23:41;32;28;19
61584;PMS7003;47479;53.810;18.308;2022-12-01T18:33:58;33;28;19
61584;PMS7003;47479;53.810;18.308;2022-12-01T18:39:09;37;31;20
61584;PMS7003;47479;53.810;18.308;2022-12-01T18:44:12;39;31;21
61584;PMS7003;47479;53.810;18.308;2022-12-01T18:49:14;45;36;24
61584;PMS7003;47479;53.810;18.308;2022-12-01T18:54:15;41;34;23
61584;PMS7003;47479;53.810;18.308;2022-12-01T18:59:17;38;31;22
61584;PMS7003;47479;53.810;18.308;2022-12-01T19:04:19;35;30;20
61584;PMS7003;47479;53.810;18.308;2022-12-01T19:09:21;38;32;21
61584;PMS7003;47479;53.810;18.308;2022-12-01T19:14:23;33;29;20
61584;PMS7003;47479;53.810;18.308;2022-12-01T19:19:26;32;28;19
61584;PMS7003;47479;53.810;18.308;2022-12-01T19:24:28;31;27;18
61584;PMS7003;47479;53.810;18.308;2022-12-01T19:29:29;25;25;17
61584;PMS7003;47479;53.810;18.308;2022-12-01T19:34:31;28;25;18
61584;PMS7003;47479;53.810;18.308;2022-12-01T19:39:34;42;35;22
61584;PMS7003;47479;53.810;18.308;2022-12-01T19:44:36;31;28;18
61584;PMS7003;47479;53.810;18.308;2022-12-01T19:49:37;34;27;17
61584;PMS7003;47479;53.810;18.308;2022-12-01T19:54:39;29;27;18
61584;PMS7003;47479;53.810;18.308;2022-12-01T19:59:41;36;30;20
61584;PMS7003;47479;53.810;18.308;2022-12-01T20:04:58;28;25;18
61584;PMS7003;47479;53.810;18.308;2022-12-01T20:10:00;27;26;18
61584;PMS7003;47479;53.810;18.308;2022-12-01T20:15:02;32;28;19
61584;PMS7003;47479;53.810;18.308;2022-12-01T20:20:06;40;33;21
61584;PMS7003;47479;53.810;18.308;2022-12-01T20:25:09;37;31;20
61584;PMS7003;47479;53.810;18.308;2022-12-01T20:30:11;38;34;21
61584;PMS7003;47479;53.810;18.308;2022-12-01T20:35:14;35;28;20
61584;PMS7003;47479;53.810;18.308;2022-12-01T20:40:16;38;31;20
61584;PMS7003;47479;53.810;18.308;2022-12-01T20:45:18;30;28;20
61584;PMS7003;47479;53.810;18.308;2022-12-01T20:50:20;33;28;20
61584;PMS7003;47479;53.810;18.308;2022-12-01T20:55:22;33;29;20
61584;PMS7003;47479;53.810;18.308;2022-12-01T21:00:24;37;31;21
61584;PMS7003;47479;53.810;18.308;2022-12-01T21:05:26;29;26;17
61584;PMS7003;47479;53.810;18.308;2022-12-01T21:10:27;30;26;19
61584;PMS7003;47479;53.810;18.308;2022-12-01T21:15:30;28;26;17
61584;PMS7003;47479;53.810;18.308;2022-12-01T21:20:34;65;54;31
61584;PMS7003;47479;53.810;18.308;2022-12-01T21:25:39;29;26;17
61584;PMS7003;47479;53.810;18.308;2022-12-01T21:36:00;28;27;18
61584;PMS7003;47479;53.810;18.308;2022-12-01T21:41:08;28;27;18
61584;PMS7003;47479;53.810;18.308;2022-12-01T21:46:16;30;26;17
61584;PMS7003;47479;53.810;18.308;2022-12-01T21:51:21;27;24;16
61584;PMS7003;47479;53.810;18.308;2022-12-01T21:56:24;29;26;19
61584;PMS7003;47479;53.810;18.308;2022-12-01T22:01:28;27;24;17
61584;PMS7003;47479;53.810;18.308;2022-12-01T22:06:37;27;25;16
61584;PMS7003;47479;53.810;18.308;2022-12-01T22:11:41;28;26;18
61584;PMS7003;47479;53.810;18.308;2022-12-01T22:16:46;26;25;18
61584;PMS7003;47479;53.810;18.308;2022-12-01T22:21:48;33;25;17
61584;PMS7003;47479;53.810;18.308;2022-12-01T22:37:18;37;30;20
61584;PMS7003;47479;53.810;18.308;2022-12-01T22:42:21;35;30;20
61584;PMS7003;47479;53.810;18.308;2022-12-01T22:47:20;37;29;18
61584;PMS7003;47479;53.810;18.308;2022-12-01T22:52:25;38;32;21
61584;PMS7003;47479;53.810;18.308;2022-12-01T22:57:32;40;32;22
61584;PMS7003;47479;53.810;18.308;2022-12-01T23:02:36;38;30;19
61584;PMS7003;47479;53.810;18.308;2022-12-01T23:07:39;42;34;21
61584;PMS7003;47479;53.810;18.308;2022-12-01T23:12:42;40;30;21
61584;PMS7003;47479;53.810;18.308;2022-12-01T23:17:45;34;28;20
61584;PMS7003;47479;53.810;18.308;2022-12-01T23:22:47;40;33;20
61584;PMS7003;47479;53.810;18.308;2022-12-01T23:27:50;39;33;21
61584;PMS7003;47479;53.810;18.308;2022-12-01T23:33:04;42;34;21
61584;PMS7003;47479;53.810;18.308;2022-12-01T23:38:10;40;32;19
61584;PMS7003;47479;53.810;18.308;2022-12-01T23:43:15;42;33;20
61584;PMS7003;47479;53.810;18.308;2022-12-01T23:48:21;38;30;19
61584;PMS7003;47479;53.810;18.308;2022-12-01T23:53:26;40;32;19
61584;PMS7003;47479;53.810;18.308;2022-12-01T23:58:27;37;32;20
